Airfield :
LOGIN :

Register | Disclaimer

   EN    FR    IT 

 










Legend :    VFR   Marginal VFR   IFR   Intensive IFR   Very Intensive IFR
Visi :
Ceiling :
>= 8 km
>= 3000ft
5 to 8 km
1000 to 3000 ft
1500m to 5 km
500 to 1000 ft
800 to 1500m
200 to 500 ft
< 800m
< 200 ft
Symbols :   Thunderstorms  Fog  Heavy snow  Heavy precipitations  Wind > 20 kt
SIGMETs :     Misc.  Thunderstorms  Icing  Turbulence  Mountain Waves  Volcanic Ashes






- Airport Elevation : 863 ft
- IATA code : ZAZ


LEZG - Zaragoza Aragon

CURRENT METAR :
  • 100400Z 29025G35KT CAVOK 09/03 Q1028

EXPIRED METARs :
  • 100330Z 29023KT CAVOK 09/03 Q1028
  • 100300Z 28021KT 9999 FEW040 09/03 Q1028
  • 100230Z 29024KT 9999 FEW040 09/04 Q1028
  • 100200Z 29023KT 9999 FEW040 09/04 Q1029
  • 100130Z 28019KT CAVOK 09/04 Q1029

TAF TAF LEZG
Valid from the 10 at 00:00 until the 11 at 00:00 UTC


092300Z 1000/1024 29014KT 9999 FEW035 TX14/1013Z TN07/1006Z
BECMG 1015/1017 25007KT



MET'MAP, your aeronautical weather chart ! - Copyright ORBIFLY December 2007 - Disclaimer

ORBIFLY MET'MAP TEAM :

Programming & Development : Alexandra Zaïnal
Concept & original design : Baudouin d'Aumeries
Assistance for programming : Marc-Olivier Méhu
Technical & hardware support : Manuel Goepfert

Contact : metmap@orbifly.com




SOURCES & CREDITS :

   NOAA